Time;durP1;ratioP1;P1;durP2;ratioP2;P2;SDS_P1;SDS_P2;PMS_P1;PMS_P2;Temp;Humidity;BMP_temperature;BMP_pressure;BME280_temperature;BME280_humidity;BME280_pressure;Samples;Min_cycle;Max_cycle;Signal;HPM_P1;HPM_P2
2022/09/11 00:01:57;;;;;;;25.20;17.05;;;;;;;33.61;15.68;100086.59;5012014;28;20046;-76
2022/09/11 00:04:26;;;;;;;18.38;16.30;;;;;;;33.53;16.21;100079.94;5006924;28;20042;-77
2022/09/11 00:06:55;;;;;;;20.25;17.10;;;;;;;33.57;15.98;100091.28;5003428;28;20054;-77
2022/09/11 00:09:31;;;;;;;21.50;17.20;;;;;;;33.57;15.92;100092.16;5014478;28;20049;-77
2022/09/11 00:11:59;;;;;;;22.90;17.65;;;;;;;33.48;15.53;100089.31;5012938;28;20226;-76
2022/09/11 00:14:29;;;;;;;22.77;17.17;;;;;;;33.45;16.40;100092.25;5011993;28;20050;-77
2022/09/11 00:17:04;;;;;;;19.95;16.30;;;;;;;33.42;16.52;100092.47;5006775;28;20055;-74
2022/09/11 00:19:33;;;;;;;21.17;15.90;;;;;;;33.43;16.67;100100.41;5002863;28;20045;-79
2022/09/11 00:22:01;;;;;;;21.10;16.52;;;;;;;33.37;16.97;100095.50;5006129;28;20069;-75
2022/09/11 00:24:30;;;;;;;22.58;17.85;;;;;;;33.37;17.20;100107.06;5010392;28;20050;-78
2022/09/11 00:26:59;;;;;;;21.90;17.20;;;;;;;33.34;17.11;100106.47;5011483;28;20050;-75
2022/09/11 00:29:34;;;;;;;20.27;16.15;;;;;;;33.30;16.50;100110.34;5004952;28;20142;-76
2022/09/11 00:32:03;;;;;;;22.58;18.42;;;;;;;33.18;16.18;100104.94;5009392;28;20650;-79
2022/09/11 00:34:32;;;;;;;23.25;16.83;;;;;;;33.12;17.00;100102.75;4996924;28;20495;-77
2022/09/11 00:37:01;;;;;;;20.02;16.67;;;;;;;33.11;17.20;100103.69;5005834;28;20046;-77
2022/09/11 00:39:49;;;;;;;21.25;16.73;;;;;;;33.10;17.63;100115.41;5002035;28;20042;-77
2022/09/11 00:42:17;;;;;;;22.38;17.42;;;;;;;33.07;16.65;100120.97;4999490;28;20050;-77
2022/09/11 00:45:03;;;;;;;21.40;17.83;;;;;;;32.97;16.83;100120.78;5006591;28;20050;-76
2022/09/11 00:47:32;;;;;;;23.08;16.35;;;;;;;32.82;16.64;100104.97;5007928;28;20050;-79
2022/09/11 00:50:18;;;;;;;22.90;17.75;;;;;;;32.80;16.69;100117.63;5007226;28;20415;-80
2022/09/11 00:52:54;;;;;;;22.77;17.27;;;;;;;32.63;17.22;100119.72;5004690;28;20053;-78
2022/09/11 00:55:34;;;;;;;23.95;17.52;;;;;;;32.63;17.11;100125.09;5002610;28;20065;-77
2022/09/11 00:58:08;;;;;;;21.23;16.95;;;;;;;32.58;16.77;100129.94;5012881;28;20068;-85
2022/09/11 01:00:44;;;;;;;20.42;17.85;;;;;;;32.41;17.05;100106.16;5013048;28;20387;-82
2022/09/11 01:03:13;;;;;;;19.95;17.20;;;;;;;32.45;17.88;100118.34;5012873;28;20110;-83
2022/09/11 01:05:47;;;;;;;22.92;18.08;;;;;;;32.38;18.40;100123.28;5017221;28;20050;-85
2022/09/11 01:08:15;;;;;;;23.77;17.92;;;;;;;32.26;18.03;100119.69;5015583;28;20056;-82
2022/09/11 01:10:57;;;;;;;21.10;17.25;;;;;;;32.17;18.22;100119.50;5006230;28;20054;-84
2022/09/11 01:13:33;;;;;;;23.30;18.20;;;;;;;32.01;18.31;100119.72;5006912;28;20053;-80
2022/09/11 01:16:20;;;;;;;21.48;17.50;;;;;;;32.00;18.24;100123.34;5008176;28;20065;-79
2022/09/11 01:18:56;;;;;;;21.98;17.30;;;;;;;31.80;18.75;100111.34;5002277;28;20047;-78
2022/09/11 01:21:51;;;;;;;21.90;16.17;;;;;;;31.72;19.35;100127.91;5007925;28;20069;-84
2022/09/11 01:24:49;;;;;;;24.50;18.52;;;;;;;31.62;18.55;100127.69;4997316;28;20057;-79
2022/09/11 01:27:59;;;;;;;24.63;18.27;;;;;;;31.52;19.10;100130.13;4982898;28;20053;-86
2022/09/11 01:30:36;;;;;;;25.83;18.75;;;;;;;31.56;19.42;100145.97;4928400;29;20058;-75
2022/09/11 01:33:25;;;;;;;24.98;18.98;;;;;;;31.41;19.44;100134.50;4994510;28;20049;-84
2022/09/11 01:36:00;;;;;;;22.88;19.27;;;;;;;31.28;19.14;100127.25;5008969;28;20499;-81
2022/09/11 01:38:42;;;;;;;27.08;19.40;;;;;;;31.14;18.71;100121.97;5007874;28;20058;-82
2022/09/11 01:41:16;;;;;;;22.10;19.15;;;;;;;31.15;19.01;100128.19;5010762;28;20045;-77
2022/09/11 01:43:53;;;;;;;24.23;18.15;;;;;;;31.04;19.73;100124.41;5009345;28;20046;-78
2022/09/11 01:46:25;;;;;;;23.52;19.48;;;;;;;30.93;18.52;100115.41;5009907;28;20077;-80
2022/09/11 01:49:06;;;;;;;25.30;18.67;;;;;;;30.93;19.09;100134.09;5012217;28;20407;-80
2022/09/11 01:51:40;;;;;;;25.17;20.60;;;;;;;30.79;18.77;100134.97;5009739;28;20045;-80
2022/09/11 01:54:13;;;;;;;26.20;19.60;;;;;;;30.70;18.32;100136.41;4999371;28;20050;-80
2022/09/11 01:56:52;;;;;;;22.80;18.48;;;;;;;30.53;18.83;100123.28;5003195;28;20133;-82
2022/09/11 01:59:27;;;;;;;25.33;18.73;;;;;;;30.52;18.90;100143.78;5003345;28;20053;-79
2022/09/11 02:02:01;;;;;;;26.67;19.73;;;;;;;30.35;18.56;100126.16;4999486;28;20112;-77
2022/09/11 02:04:38;;;;;;;22.90;18.77;;;;;;;30.33;19.11;100137.88;5004174;28;20056;-77
2022/09/11 02:07:11;;;;;;;23.38;18.83;;;;;;;30.21;19.57;100140.31;5002474;28;20050;-76
2022/09/11 02:09:55;;;;;;;26.13;18.75;;;;;;;30.22;18.95;100155.38;5009071;28;20426;-77
2022/09/11 02:12:28;;;;;;;24.92;20.05;;;;;;;30.07;19.04;100138.50;5007671;28;20464;-76
2022/09/11 02:14:59;;;;;;;22.75;19.27;;;;;;;30.01;19.50;100138.06;5004664;28;20519;-79
2022/09/11 02:17:48;;;;;;;23.63;19.42;;;;;;;29.90;19.40;100143.19;5007752;28;20145;-78
2022/09/11 02:20:19;;;;;;;23.38;18.58;;;;;;;29.84;20.12;100155.91;5000959;28;20112;-78
2022/09/11 02:22:55;;;;;;;24.50;19.75;;;;;;;29.76;20.17;100162.69;4999869;28;20045;-76
2022/09/11 02:25:24;;;;;;;24.80;19.48;;;;;;;29.53;20.49;100140.88;5010161;28;20096;-76
2022/09/11 02:27:53;;;;;;;25.92;20.38;;;;;;;29.51;20.23;100160.59;5009489;28;20052;-74
2022/09/11 02:30:23;;;;;;;25.90;20.38;;;;;;;29.31;20.60;100154.59;5009775;28;20078;-74
2022/09/11 02:33:00;;;;;;;23.20;19.40;;;;;;;29.33;20.43;100175.84;5003046;28;20451;-75
2022/09/11 02:35:41;;;;;;;24.23;19.33;;;;;;;29.19;20.79;100182.81;5009711;28;20057;-75
2022/09/11 02:38:25;;;;;;;24.33;19.85;;;;;;;28.94;22.01;100174.47;5010060;28;20045;-78
2022/09/11 02:41:01;;;;;;;22.33;19.38;;;;;;;28.87;21.80;100186.41;5004978;28;20076;-76
2022/09/11 02:43:51;;;;;;;24.25;18.88;;;;;;;28.78;21.91;100193.09;5002511;28;20073;-75
2022/09/11 02:46:50;;;;;;;26.70;21.13;;;;;;;28.70;22.72;100203.28;5001219;28;20156;-73
2022/09/11 02:49:30;;;;;;;29.08;20.02;;;;;;;28.53;23.26;100205.06;5003594;28;20046;-76
2022/09/11 02:52:06;;;;;;;23.70;19.23;;;;;;;28.32;23.70;100190.25;5002721;28;20054;-77
2022/09/11 02:54:42;;;;;;;26.08;20.73;;;;;;;28.22;23.15;100199.63;5004570;28;20495;-75
2022/09/11 02:57:20;;;;;;;29.40;22.15;;;;;;;28.03;22.70;100200.59;5009432;28;20058;-75
2022/09/11 02:59:53;;;;;;;27.48;20.92;;;;;;;27.87;23.30;100205.00;4997202;28;20050;-74
2022/09/11 03:02:35;;;;;;;25.08;20.08;;;;;;;27.83;23.51;100219.34;5009493;28;20046;-79
2022/09/11 03:05:03;;;;;;;25.02;20.77;;;;;;;27.66;23.24;100213.09;5001011;28;20128;-79
2022/09/11 03:07:32;;;;;;;25.05;19.98;;;;;;;27.54;23.76;100200.41;4997367;28;20054;-77
2022/09/11 03:10:10;;;;;;;27.50;20.90;;;;;;;27.57;23.33;100232.16;4995185;28;20492;-75
2022/09/11 03:12:38;;;;;;;27.25;20.75;;;;;;;27.43;24.62;100221.34;5000177;28;20052;-75
2022/09/11 03:15:09;;;;;;;27.60;20.13;;;;;;;27.40;25.50;100237.41;4996456;28;20056;-75
2022/09/11 03:17:49;;;;;;;30.52;21.60;;;;;;;27.30;26.43;100240.50;4981428;28;20050;-74
2022/09/11 03:20:18;;;;;;;23.77;19.10;;;;;;;27.12;27.11;100230.75;4986670;28;20054;-73
2022/09/11 03:22:46;;;;;;;30.08;20.50;;;;;;;26.95;26.64;100231.56;4985235;28;20050;-76
2022/09/11 03:25:15;;;;;;;29.02;21.15;;;;;;;26.99;25.85;100256.19;4985517;28;20050;-75
2022/09/11 03:28:03;;;;;;;28.10;21.40;;;;;;;26.86;26.70;100248.75;4989225;28;20074;-76
2022/09/11 03:30:32;;;;;;;26.23;21.38;;;;;;;26.76;26.65;100254.59;4984668;28;20415;-75
2022/09/11 03:33:19;;;;;;;26.08;22.27;;;;;;;26.76;26.30;100267.84;4980158;28;20500;-73
2022/09/11 03:35:48;;;;;;;27.67;21.05;;;;;;;26.59;26.59;100265.94;4979413;28;20492;-75
2022/09/11 03:38:17;;;;;;;29.65;21.92;;;;;;;26.50;27.10;100268.06;4988511;28;20574;-75
2022/09/11 03:40:53;;;;;;;32.25;21.23;;;;;;;26.52;27.39;100281.25;4979933;28;20065;-74
2022/09/11 03:43:22;;;;;;;29.10;21.80;;;;;;;26.36;28.20;100286.34;4981321;28;20051;-74
2022/09/11 03:45:52;;;;;;;32.83;23.48;;;;;;;26.35;26.90;100305.84;4983258;28;20050;-75
2022/09/11 03:48:39;;;;;;;31.55;22.10;;;;;;;26.20;26.77;100296.75;4988917;28;20109;-73
2022/09/11 03:51:08;;;;;;;27.75;22.67;;;;;;;26.06;26.87;100294.69;4984644;28;20480;-80
2022/09/11 03:53:37;;;;;;;37.80;23.05;;;;;;;26.11;26.78;100313.94;4994147;28;20081;-80
2022/09/11 03:56:23;;;;;;;30.48;22.30;;;;;;;26.04;27.21;100317.75;4993834;28;20061;-78
2022/09/11 03:58:57;;;;;;;29.73;22.77;;;;;;;25.99;27.17;100329.47;4987711;28;20046;-80
2022/09/11 04:01:34;;;;;;;31.90;21.95;;;;;;;25.92;27.30;100339.47;4995242;28;20076;-83
2022/09/11 04:04:05;;;;;;;34.25;21.45;;;;;;;25.77;28.23;100335.63;4986095;28;20057;-79
2022/09/11 04:06:33;;;;;;;26.73;20.52;;;;;;;25.60;28.70;100325.69;4988594;28;20066;-81
2022/09/11 04:09:16;;;;;;;31.13;22.35;;;;;;;25.57;28.79;100339.06;4992150;28;20400;-74
2022/09/11 04:11:45;;;;;;;31.15;22.52;;;;;;;25.55;29.83;100356.81;4982520;28;20043;-77
2022/09/11 04:14:14;;;;;;;29.45;21.35;;;;;;;25.48;29.49;100365.91;4993606;28;20046;-77
2022/09/11 04:16:52;;;;;;;26.20;20.40;;;;;;;25.32;30.35;100354.19;4992920;28;21275;-79
2022/09/11 04:19:22;;;;;;;26.92;21.05;;;;;;;25.19;30.77;100349.34;5002057;28;20502;-83
2022/09/11 04:21:51;;;;;;;28.60;20.55;;;;;;;25.27;29.39;100373.75;4991259;28;20121;-82
2022/09/11 04:24:20;;;;;;;30.15;20.33;;;;;;;25.22;29.83;100381.03;4994768;28;20069;-78
2022/09/11 04:26:58;;;;;;;28.33;20.60;;;;;;;25.14;30.06;100380.41;4987235;28;20466;-77
2022/09/11 04:29:27;;;;;;;25.92;20.45;;;;;;;25.07;30.43;100381.53;5001968;28;20391;-79
2022/09/11 04:31:56;;;;;;;31.80;20.02;;;;;;;24.95;30.19;100377.56;4984777;28;20054;-82
2022/09/11 04:34:34;;;;;;;30.60;21.15;;;;;;;24.85;30.39;100377.03;4994923;28;20407;-85
2022/09/11 04:37:04;;;;;;;32.95;21.40;;;;;;;24.76;30.32;100374.72;4982906;28;20504;-82
2022/09/11 04:39:34;;;;;;;25.98;20.45;;;;;;;24.67;30.98;100367.09;4989297;28;20129;-82
2022/09/11 04:42:03;;;;;;;28.20;21.15;;;;;;;24.71;30.67;100387.22;4999428;28;20511;-81
2022/09/11 04:44:40;;;;;;;27.83;19.70;;;;;;;24.61;30.82;100391.13;5003232;28;20129;-81
2022/09/11 04:47:09;;;;;;;25.10;19.92;;;;;;;24.47;30.25;100370.44;4993475;28;20046;-82
2022/09/11 04:49:39;;;;;;;28.00;21.52;;;;;;;24.49;30.68;100383.59;5002281;28;20056;-81
2022/09/11 04:52:26;;;;;;;28.40;20.45;;;;;;;24.38;31.94;100386.56;4993568;28;20047;-82
2022/09/11 04:54:55;;;;;;;28.73;21.13;;;;;;;24.26;31.51;100393.16;4993548;28;20115;-84
2022/09/11 04:57:24;;;;;;;24.90;21.08;;;;;;;24.17;31.18;100393.44;4997956;28;20408;-85
2022/09/11 05:00:00;;;;;;;33.28;22.25;;;;;;;24.10;31.15;100391.88;4993470;28;20050;-81
2022/09/11 05:02:29;;;;;;;30.90;21.25;;;;;;;24.01;31.62;100388.66;4990380;28;20576;-84
2022/09/11 05:04:59;;;;;;;30.83;21.30;;;;;;;23.85;31.43;100382.13;5001225;28;20049;-82
2022/09/11 05:07:37;;;;;;;33.50;24.05;;;;;;;23.78;30.66;100391.16;5002529;28;20061;-82
2022/09/11 05:10:06;;;;;;;31.25;22.50;;;;;;;23.83;30.80;100420.94;4989726;28;20098;-83
2022/09/11 05:12:35;;;;;;;32.33;23.27;;;;;;;23.60;30.97;100396.03;5000289;28;20077;-82
2022/09/11 05:15:04;;;;;;;30.13;22.70;;;;;;;23.67;31.35;100422.28;4994609;28;20049;-80
2022/09/11 05:17:50;;;;;;;34.30;23.63;;;;;;;23.55;32.38;100427.00;5016067;28;20058;-82
2022/09/11 05:20:20;;;;;;;30.05;24.25;;;;;;;23.45;31.61;100429.97;5007632;28;20080;-86
2022/09/11 05:22:55;;;;;;;31.02;22.88;;;;;;;23.36;31.45;100431.94;5012622;28;20488;-83
2022/09/11 05:25:24;;;;;;;31.15;23.52;;;;;;;23.26;33.71;100432.25;5008044;28;20546;-85
2022/09/11 05:27:52;;;;;;;30.40;23.02;;;;;;;23.08;34.07;100426.56;5014379;28;20105;-84
2022/09/11 05:30:21;;;;;;;35.90;23.92;;;;;;;23.10;33.83;100452.94;5016143;28;20049;-85
2022/09/11 05:33:13;;;;;;;33.97;22.58;;;;;;;23.03;34.00;100454.00;5013813;28;20042;-82
2022/09/11 05:35:43;;;;;;;30.30;23.67;;;;;;;23.03;34.75;100469.84;5011172;28;20061;-83
2022/09/11 05:38:21;;;;;;;35.95;21.92;;;;;;;22.90;35.28;100456.06;5014672;28;20505;-81
2022/09/11 05:40:51;;;;;;;31.63;22.35;;;;;;;22.90;35.68;100469.25;5011955;28;20081;-83
2022/09/11 05:43:20;;;;;;;32.50;22.90;;;;;;;22.73;35.17;100460.00;5010702;28;20074;-81
2022/09/11 05:46:14;;;;;;;30.40;21.95;;;;;;;22.70;34.80;100460.09;5013306;28;20053;-83
2022/09/11 05:48:43;;;;;;;28.33;23.58;;;;;;;22.54;35.23;100458.72;5006231;28;20057;-82
2022/09/11 05:51:23;;;;;;;31.77;23.70;;;;;;;22.38;36.45;100464.38;5011081;28;20793;-79
2022/09/11 05:53:55;;;;;;;30.77;23.67;;;;;;;22.23;38.02;100463.88;5007053;28;20531;-82
2022/09/11 05:56:34;;;;;;;33.00;23.35;;;;;;;22.23;37.64;100474.41;5005989;28;20132;-81
2022/09/11 05:59:03;;;;;;;34.90;24.27;;;;;;;22.19;38.45;100481.47;5011032;28;20065;-81
2022/09/11 06:01:32;;;;;;;37.17;24.23;;;;;;;22.15;38.99;100492.97;5010936;28;20104;-80
2022/09/11 06:04:01;;;;;;;35.50;23.65;;;;;;;22.00;38.74;100480.19;5013392;28;20049;-81
2022/09/11 06:06:50;;;;;;;33.45;23.20;;;;;;;21.81;38.87;100451.59;5006992;28;20139;-81
2022/09/11 06:09:19;;;;;;;31.52;23.02;;;;;;;21.91;38.78;100497.91;5006332;28;20144;-77
2022/09/11 06:11:48;;;;;;;34.30;25.88;;;;;;;21.60;39.21;100486.28;5009984;28;20125;-77
2022/09/11 06:14:21;;;;;;;32.65;24.58;;;;;;;21.51;38.84;100498.72;5007000;28;20113;-77
2022/09/11 06:16:50;;;;;;;32.83;24.77;;;;;;;21.39;39.67;100491.03;5011875;28;20110;-76
2022/09/11 06:19:19;;;;;;;34.47;24.48;;;;;;;21.17;40.48;100476.56;5008765;28;20046;-77
2022/09/11 06:21:49;;;;;;;32.17;25.48;;;;;;;21.30;39.76;100509.63;5008467;28;20054;-81
2022/09/11 06:24:24;;;;;;;36.38;24.73;;;;;;;21.28;39.17;100511.41;5009798;28;20415;-80
2022/09/11 06:26:52;;;;;;;33.55;25.33;;;;;;;21.07;39.22;100492.53;5007524;28;20050;-80
2022/09/11 06:29:21;;;;;;;36.22;24.70;;;;;;;21.19;39.02;100530.91;5005249;28;20053;-81
2022/09/11 06:31:50;;;;;;;36.72;25.17;;;;;;;21.17;39.33;100523.94;5011435;28;20054;-80
2022/09/11 06:34:27;;;;;;;33.55;25.35;;;;;;;21.15;39.37;100536.22;4997841;28;20399;-80
2022/09/11 06:36:57;;;;;;;41.70;25.52;;;;;;;21.04;38.84;100518.00;4997127;28;20076;-79
2022/09/11 06:39:26;;;;;;;34.63;24.67;;;;;;;21.00;38.82;100521.56;5006079;28;20489;-77
2022/09/11 06:41:54;;;;;;;36.70;26.55;;;;;;;21.01;40.46;100539.97;5001661;28;20050;-80
2022/09/11 06:44:26;;;;;;;32.45;25.10;;;;;;;20.77;40.84;100511.44;5010868;28;20096;-79
2022/09/11 06:46:56;;;;;;;32.10;25.38;;;;;;;20.89;40.93;100545.41;5010694;28;20430;-79
2022/09/11 06:49:25;;;;;;;32.90;25.13;;;;;;;20.84;40.25;100552.50;5002459;28;20046;-79
2022/09/11 06:51:54;;;;;;;34.60;25.58;;;;;;;20.71;41.55;100547.47;5006908;28;20056;-82
2022/09/11 06:54:30;;;;;;;35.55;24.30;;;;;;;20.64;41.34;100535.31;5016860;28;20069;-82
2022/09/11 06:56:59;;;;;;;32.22;26.25;;;;;;;20.85;40.70;100575.31;5012802;28;20045;-79
2022/09/11 06:59:27;;;;;;;31.63;25.33;;;;;;;20.76;41.14;100564.94;5008919;28;20065;-80
2022/09/11 07:01:56;;;;;;;40.20;26.63;;;;;;;20.71;41.87;100580.78;5003106;28;20053;-76
2022/09/11 07:04:34;;;;;;;33.85;24.90;;;;;;;20.59;42.03;100581.84;5010427;28;20637;-82
2022/09/11 07:07:03;;;;;;;33.50;25.63;;;;;;;20.56;42.30;100594.09;5008917;28;20411;-80
2022/09/11 07:09:34;;;;;;;35.97;26.05;;;;;;;20.55;42.81;100593.25;5003445;28;20400;-82
2022/09/11 07:12:09;;;;;;;36.35;26.15;;;;;;;20.52;42.75;100601.16;5010971;28;20507;-80
2022/09/11 07:14:38;;;;;;;33.70;25.92;;;;;;;20.44;42.99;100598.63;5000586;28;20137;-81
2022/09/11 07:17:07;;;;;;;35.53;25.38;;;;;;;20.40;43.34;100603.97;4993218;28;20540;-81
2022/09/11 07:19:35;;;;;;;36.63;27.25;;;;;;;20.34;42.69;100596.16;4985383;28;20070;-81
2022/09/11 07:22:13;;;;;;;38.50;26.77;;;;;;;20.31;42.67;100604.94;4990644;28;20062;-81
2022/09/11 07:24:43;;;;;;;34.35;28.27;;;;;;;20.30;42.21;100606.72;4992787;28;20519;-82
2022/09/11 07:27:12;;;;;;;34.65;26.58;;;;;;;20.30;43.25;100619.84;4995751;28;20456;-82
2022/09/11 07:29:41;;;;;;;35.55;26.92;;;;;;;20.03;42.56;100586.03;4997039;28;20042;-81
2022/09/11 07:32:19;;;;;;;35.72;26.98;;;;;;;20.21;41.00;100625.22;4993464;28;20121;-80
2022/09/11 07:34:48;;;;;;;36.55;28.00;;;;;;;20.10;41.40;100629.72;4993432;28;20525;-83
2022/09/11 07:37:17;;;;;;;32.83;25.90;;;;;;;20.00;40.92;100614.97;4999734;28;20511;-83
2022/09/11 07:39:58;;;;;;;33.92;26.45;;;;;;;19.91;40.52;100610.69;4995295;28;20050;-82
2022/09/11 07:42:27;;;;;;;40.05;28.10;;;;;;;19.87;41.44;100616.84;4990478;28;20043;-81
2022/09/11 07:44:56;;;;;;;39.22;26.90;;;;;;;19.91;42.18;100625.59;4995914;28;20055;-82
2022/09/11 07:47:24;;;;;;;37.08;26.92;;;;;;;19.79;43.65;100621.31;4995424;28;20049;-82
2022/09/11 07:50:02;;;;;;;38.17;26.77;;;;;;;19.86;43.98;100637.00;4992989;28;20058;-81
2022/09/11 07:52:31;;;;;;;38.72;27.95;;;;;;;19.82;43.50;100640.53;4989492;28;20043;-81
2022/09/11 07:55:02;;;;;;;37.60;26.58;;;;;;;19.76;43.57;100637.97;4995165;28;20583;-80
2022/09/11 07:57:41;;;;;;;38.58;27.58;;;;;;;19.67;43.84;100633.63;4998994;28;20054;-80
2022/09/11 08:00:11;;;;;;;36.33;27.42;;;;;;;19.71;44.20;100650.28;4994058;28;20050;-79
2022/09/11 08:02:41;;;;;;;37.13;26.55;;;;;;;19.67;43.96;100656.41;4990670;28;20054;-80
2022/09/11 08:05:24;;;;;;;36.95;26.98;;;;;;;19.42;43.52;100619.00;4984997;28;20053;-78
2022/09/11 08:07:52;;;;;;;34.42;26.83;;;;;;;19.59;43.29;100660.88;4994594;28;20058;-80
2022/09/11 08:10:22;;;;;;;43.90;29.85;;;;;;;19.55;43.64;100670.50;4986262;28;20046;-81
2022/09/11 08:12:56;;;;;;;36.30;27.73;;;;;;;19.50;42.57;100664.44;4982348;28;20046;-81
2022/09/11 08:15:25;;;;;;;38.92;27.30;;;;;;;19.52;42.88;100674.94;4995438;28;20042;-79
2022/09/11 08:17:54;;;;;;;38.03;28.13;;;;;;;19.39;44.53;100654.03;5019634;28;20065;-81
2022/09/11 08:20:22;;;;;;;36.72;28.15;;;;;;;19.32;44.59;100657.59;5020598;28;20053;-81
2022/09/11 08:22:51;;;;;;;37.63;27.25;;;;;;;19.40;43.86;100686.38;5011474;28;20049;-81
2022/09/11 08:25:29;;;;;;;37.80;27.70;;;;;;;19.36;43.93;100679.44;5003895;28;20054;-83
2022/09/11 08:27:58;;;;;;;37.28;27.70;;;;;;;19.24;44.43;100660.28;5004514;28;20045;-80
2022/09/11 08:30:27;;;;;;;38.00;27.30;;;;;;;19.30;45.05;100669.84;5011855;28;20046;-78
2022/09/11 08:33:08;;;;;;;40.55;28.73;;;;;;;19.26;47.09;100662.88;5011715;28;20052;-78
2022/09/11 08:35:37;;;;;;;40.60;28.92;;;;;;;19.22;47.80;100684.78;5001636;28;20416;-78
2022/09/11 08:38:05;;;;;;;39.13;28.52;;;;;;;19.12;47.09;100683.09;5008819;28;20076;-80
2022/09/11 08:40:52;;;;;;;39.53;27.95;;;;;;;18.95;46.48;100673.59;5013027;28;20782;-80
2022/09/11 08:43:24;;;;;;;34.72;26.90;;;;;;;18.98;46.46;100698.91;5008396;28;20038;-80
2022/09/11 08:46:05;;;;;;;37.67;27.92;;;;;;;18.82;46.26;100690.28;4993198;28;20054;-78
2022/09/11 08:48:41;;;;;;;44.42;27.95;;;;;;;18.81;45.59;100722.63;5012823;28;20046;-83
2022/09/11 08:51:17;;;;;;;38.20;26.83;;;;;;;18.76;45.60;100713.84;5008007;28;20142;-82
2022/09/11 08:53:50;;;;;;;40.17;27.80;;;;;;;18.75;45.64;100717.34;5002414;28;20662;-80
2022/09/11 08:56:23;;;;;;;41.03;28.10;;;;;;;18.80;45.62;100731.34;5003966;28;20069;-80
2022/09/11 08:59:12;;;;;;;40.90;28.80;;;;;;;18.83;45.41;100720.88;5002089;28;20403;-80
2022/09/11 09:01:46;;;;;;;38.30;26.55;;;;;;;18.88;45.22;100737.44;5001320;28;20530;-83
2022/09/11 09:04:34;;;;;;;37.17;26.50;;;;;;;18.93;45.70;100747.91;5000614;28;20042;-80
2022/09/11 09:07:21;;;;;;;36.08;26.92;;;;;;;18.97;45.14;100745.25;5009921;28;20053;-83
2022/09/11 09:10:00;;;;;;;39.88;26.98;;;;;;;18.91;45.59;100753.13;4998451;28;20101;-83
2022/09/11 09:12:49;;;;;;;37.40;28.75;;;;;;;19.03;45.76;100775.81;5003847;28;20056;-84
2022/09/11 09:15:41;;;;;;;36.60;26.02;;;;;;;19.04;45.86;100781.06;5011783;28;20054;-82
2022/09/11 09:18:14;;;;;;;36.65;26.73;;;;;;;19.07;45.45;100776.66;5013768;28;20064;-82
2022/09/11 09:20:53;;;;;;;40.08;28.70;;;;;;;18.96;45.59;100750.50;4999183;28;20055;-86
2022/09/11 09:23:27;;;;;;;42.33;27.13;;;;;;;19.09;46.27;100767.03;5014967;28;20073;-85
2022/09/11 09:25:57;;;;;;;35.58;27.48;;;;;;;18.92;45.94;100712.94;5008126;28;20053;-81
2022/09/11 09:28:39;;;;;;;42.80;29.83;;;;;;;19.11;45.89;100737.31;5004834;28;20112;-84
2022/09/11 09:31:10;;;;;;;36.83;24.88;;;;;;;19.03;45.88;100718.09;5010910;28;20045;-84
2022/09/11 09:33:53;;;;;;;40.57;26.27;;;;;;;19.09;46.43;100725.09;5011498;28;20061;-83
2022/09/11 09:36:25;;;;;;;37.30;26.80;;;;;;;18.96;46.69;100706.78;5012111;28;20283;-84
2022/09/11 09:38:54;;;;;;;33.83;26.20;;;;;;;18.86;46.43;100688.50;4999507;28;20496;-81
2022/09/11 09:42:15;;;;;;;38.22;27.92;;;;;;;19.00;46.84;100723.38;5002104;28;20046;-82
2022/09/11 09:45:02;;;;;;;36.47;27.35;;;;;;;18.85;47.70;100719.06;5005338;28;20058;-81
2022/09/11 09:47:31;;;;;;;36.95;26.67;;;;;;;19.02;48.07;100758.34;5000949;28;20046;-81
2022/09/11 09:50:27;;;;;;;38.67;26.00;;;;;;;18.90;47.47;100705.94;5009312;28;20565;-84
2022/09/11 09:53:03;;;;;;;42.58;26.40;;;;;;;18.98;48.24;100714.66;5012518;28;20049;-82
2022/09/11 09:55:34;;;;;;;35.40;26.58;;;;;;;18.99;47.76;100737.38;5016208;28;20453;-82
2022/09/11 09:58:08;;;;;;;32.65;24.95;;;;;;;19.12;47.80;100759.16;5012294;28;20108;-82
2022/09/11 10:00:40;;;;;;;34.60;25.40;;;;;;;19.02;47.77;100764.44;5010960;28;20141;-81
2022/09/11 10:03:26;;;;;;;;;;;;;;;19.13;47.21;100774.03;5007128;28;20100;-83
2022/09/11 10:05:59;;;;;;;36.28;25.90;;;;;;;19.08;47.21;100767.91;5011883;28;20382;-79
2022/09/11 10:08:38;;;;;;;38.90;27.40;;;;;;;19.00;47.88;100739.97;5010200;28;20069;-80
2022/09/11 10:11:12;;;;;;;39.83;27.20;;;;;;;19.05;47.48;100730.31;5004115;28;20045;-82
2022/09/11 10:13:44;;;;;;;34.72;24.48;;;;;;;19.19;48.32;100763.47;5004899;28;20337;-80
2022/09/11 10:16:35;;;;;;;35.07;26.53;;;;;;;19.17;48.24;100762.63;5005889;28;21016;-86
2022/09/11 10:19:04;;;;;;;37.28;26.02;;;;;;;19.15;48.48;100786.25;5014991;28;20042;-83
2022/09/11 10:21:42;;;;;;;35.33;26.42;;;;;;;19.10;48.15;100788.00;5013151;28;20045;-81
2022/09/11 10:24:25;;;;;;;38.45;25.75;;;;;;;19.16;47.94;100808.09;5011135;28;20092;-82
2022/09/11 10:27:02;;;;;;;;;;;;;;;19.19;48.07;100803.69;5018547;28;20100;-83
2022/09/11 10:29:31;;;;;;;35.45;25.17;;;;;;;19.12;48.50;100790.63;5011230;28;20343;-82
2022/09/11 10:32:04;;;;;;;34.55;24.75;;;;;;;19.04;48.64;100778.44;5015411;28;20042;-83
2022/09/11 10:34:47;;;;;;;36.88;24.85;;;;;;;19.03;48.39;100773.19;5012195;28;20574;-85
2022/09/11 10:37:25;;;;;;;35.50;24.83;;;;;;;19.04;48.56;100767.94;5012039;28;20474;-83
2022/09/11 10:40:07;;;;;;;35.30;26.23;;;;;;;19.03;48.32;100763.59;5011578;28;20046;-83
2022/09/11 10:42:38;;;;;;;36.10;25.73;;;;;;;19.11;48.77;100779.28;5012900;28;20100;-83
2022/09/11 10:45:17;;;;;;;41.08;25.10;;;;;;;19.09;48.40;100774.91;5003028;28;20050;-83
2022/09/11 10:47:47;;;;;;;29.40;24.05;;;;;;;19.13;48.95;100797.63;5010418;28;20049;-83
2022/09/11 10:50:25;;;;;;;38.03;25.95;;;;;;;19.20;49.11;100821.19;5003436;28;20054;-84
2022/09/11 10:53:15;;;;;;;35.42;23.75;;;;;;;19.11;49.59;100807.25;5006921;28;20074;-84
2022/09/11 10:56:00;;;;;;;33.85;24.17;;;;;;;19.03;49.62;100802.03;4996592;28;20054;-83
2022/09/11 10:58:34;;;;;;;32.05;24.45;;;;;;;18.98;51.45;100798.56;5001544;28;20053;-83
2022/09/11 11:01:02;;;;;;;33.10;23.30;;;;;;;19.06;50.85;100804.66;5011975;28;20105;-86
2022/09/11 11:03:40;;;;;;;31.98;24.05;;;;;;;19.08;51.38;100808.16;5016602;28;20054;-82
2022/09/11 11:06:19;;;;;;;30.77;23.23;;;;;;;19.05;51.52;100816.88;5014023;28;20049;-81
2022/09/11 11:09:15;;;;;;;32.22;24.02;;;;;;;19.00;51.84;100818.66;5013476;28;20132;-81
2022/09/11 11:12:05;;;;;;;32.60;23.98;;;;;;;18.79;51.85;100787.28;5011314;28;20046;-84
2022/09/11 11:14:59;;;;;;;34.55;23.98;;;;;;;18.79;51.95;100788.16;5018930;28;20049;-82
2022/09/11 11:17:48;;;;;;;34.67;25.45;;;;;;;18.99;52.11;100826.53;4999484;28;20066;-83
2022/09/11 11:20:51;;;;;;;35.47;24.88;;;;;;;18.85;52.78;100813.44;5013504;28;20053;-81
2022/09/11 11:24:01;;;;;;;37.97;23.30;;;;;;;18.84;53.34;100814.34;5012975;28;20068;-82
2022/09/11 11:26:58;;;;;;;34.75;23.83;;;;;;;18.94;52.47;100829.16;4981293;28;20041;-88
2022/09/11 11:29:45;;;;;;;32.55;23.02;;;;;;;18.97;52.41;100816.03;5010761;28;20058;-84
2022/09/11 11:32:49;;;;;;;33.50;23.05;;;;;;;18.89;52.25;100790.72;5006180;28;20042;-81
2022/09/11 11:35:32;;;;;;;29.92;22.63;;;;;;;18.86;52.03;100783.75;5009014;28;20042;-82
2022/09/11 11:38:10;;;;;;;33.35;24.02;;;;;;;18.99;53.08;100816.06;5010878;28;20055;-81
2022/09/11 11:40:52;;;;;;;33.33;24.95;;;;;;;18.92;53.62;100822.16;5005817;28;20507;-83
2022/09/11 11:43:26;;;;;;;34.22;23.92;;;;;;;18.89;53.40;100823.06;5011351;28;20058;-83
2022/09/11 11:46:00;;;;;;;33.28;22.95;;;;;;;18.83;53.34;100815.25;5010586;28;20049;-83
2022/09/11 11:48:38;;;;;;;30.58;22.40;;;;;;;18.83;53.58;100829.22;5003686;28;20050;-85